<?xml version="1.0" encoding="UTF-8" standalone="no" ?>
<gpx xmlns="http://www.topografix.com/GPX/1/1" xmlns:xsi="http://www.w3.org/2001/XMLSchema-instance" xsi:schemaLocation="http://www.topografix.com/GPX/1/1 http://www.topografix.com/GPX/1/1/gpx.xsd" version="1.1" creator="VisuGPX - https://www.visugpx.com">
  <metadata>
    <name>Mornant 13km</name>
  </metadata>
  <trk>
    <name><![CDATA[Mornant 13km]]></name>
    <trkseg>
      <trkpt lat="45.61837" lon="4.67665">
        <ele>366</ele>
        <time>2020-10-23T18:13:14.000Z</time>
      </trkpt>
      <trkpt lat="45.61843" lon="4.67615">
        <ele>366</ele>
        <time>2020-10-23T18:13:14.047Z</time>
      </trkpt>
      <trkpt lat="45.61765" lon="4.67571">
        <ele>365.10961914062</ele>
        <time>2020-10-23T18:13:14.206Z</time>
      </trkpt>
      <trkpt lat="45.61652" lon="4.67524">
        <ele>361.02001953125</ele>
        <time>2020-10-23T18:13:14.521Z</time>
      </trkpt>
      <trkpt lat="45.61582" lon="4.67449">
        <ele>355.53912353516</ele>
        <time>2020-10-23T18:13:14.953Z</time>
      </trkpt>
      <trkpt lat="45.61499" lon="4.67375">
        <ele>348.08276367188</ele>
        <time>2020-10-23T18:13:15.516Z</time>
      </trkpt>
      <trkpt lat="45.61482" lon="4.67308">
        <ele>342.38739013672</ele>
        <time>2020-10-23T18:13:16.145Z</time>
      </trkpt>
      <trkpt lat="45.61518" lon="4.67218">
        <ele>338.81762695312</ele>
        <time>2020-10-23T18:13:16.872Z</time>
      </trkpt>
      <trkpt lat="45.61488" lon="4.67224">
        <ele>337.94174194336</ele>
        <time>2020-10-23T18:13:17.639Z</time>
      </trkpt>
      <trkpt lat="45.61388" lon="4.67275">
        <ele>332.42282104492</ele>
        <time>2020-10-23T18:13:18.547Z</time>
      </trkpt>
      <trkpt lat="45.61328" lon="4.67314">
        <ele>331.19171142578</ele>
        <time>2020-10-23T18:13:19.543Z</time>
      </trkpt>
      <trkpt lat="45.61235" lon="4.67374">
        <ele>331.63754272461</ele>
        <time>2020-10-23T18:13:20.676Z</time>
      </trkpt>
      <trkpt lat="45.61235" lon="4.67374">
        <ele>331.63919067383</ele>
        <time>2020-10-23T18:13:21.809Z</time>
      </trkpt>
      <trkpt lat="45.61147" lon="4.67397">
        <ele>334.5295715332</ele>
        <time>2020-10-23T18:13:23.061Z</time>
      </trkpt>
      <trkpt lat="45.61031" lon="4.67452">
        <ele>341.27459716797</ele>
        <time>2020-10-23T18:13:24.476Z</time>
      </trkpt>
      <trkpt lat="45.60913" lon="4.67511">
        <ele>343.93765258789</ele>
        <time>2020-10-23T18:13:26.058Z</time>
      </trkpt>
      <trkpt lat="45.60839" lon="4.6751">
        <ele>347.21670532227</ele>
        <time>2020-10-23T18:13:27.739Z</time>
      </trkpt>
      <trkpt lat="45.60749" lon="4.67434">
        <ele>350.04113769531</ele>
        <time>2020-10-23T18:13:29.559Z</time>
      </trkpt>
      <trkpt lat="45.60656" lon="4.67369">
        <ele>352.24942016602</ele>
        <time>2020-10-23T18:13:31.517Z</time>
      </trkpt>
      <trkpt lat="45.60693" lon="4.66797">
        <ele>364.99697875977</ele>
        <time>2020-10-23T18:13:34.013Z</time>
      </trkpt>
      <trkpt lat="45.60739" lon="4.66535">
        <ele>377.01306152344</ele>
        <time>2020-10-23T18:13:36.762Z</time>
      </trkpt>
      <trkpt lat="45.60721" lon="4.66488">
        <ele>377.57696533203</ele>
        <time>2020-10-23T18:13:39.561Z</time>
      </trkpt>
      <trkpt lat="45.6079" lon="4.66107">
        <ele>385.86471557617</ele>
        <time>2020-10-23T18:13:42.728Z</time>
      </trkpt>
      <trkpt lat="45.60823" lon="4.65929">
        <ele>388.26843261719</ele>
        <time>2020-10-23T18:13:46.068Z</time>
      </trkpt>
      <trkpt lat="45.60908" lon="4.65649">
        <ele>393.638671875</ele>
        <time>2020-10-23T18:13:49.693Z</time>
      </trkpt>
      <trkpt lat="45.60908" lon="4.6565">
        <ele>393.60906982422</ele>
        <time>2020-10-23T18:13:53.318Z</time>
      </trkpt>
      <trkpt lat="45.6103" lon="4.65354">
        <ele>404.92013549805</ele>
        <time>2020-10-23T18:13:57.265Z</time>
      </trkpt>
      <trkpt lat="45.60863" lon="4.65324">
        <ele>400.74395751953</ele>
        <time>2020-10-23T18:14:01.436Z</time>
      </trkpt>
      <trkpt lat="45.6053" lon="4.65202">
        <ele>372.19616699219</ele>
        <time>2020-10-23T18:14:06.066Z</time>
      </trkpt>
      <trkpt lat="45.60407" lon="4.6526">
        <ele>371.98226928711</ele>
        <time>2020-10-23T18:14:10.869Z</time>
      </trkpt>
      <trkpt lat="45.60347" lon="4.65139">
        <ele>375.89611816406</ele>
        <time>2020-10-23T18:14:15.810Z</time>
      </trkpt>
      <trkpt lat="45.6012" lon="4.65264">
        <ele>375.21362304688</ele>
        <time>2020-10-23T18:14:21.076Z</time>
      </trkpt>
      <trkpt lat="45.60078" lon="4.65367">
        <ele>368.81826782227</ele>
        <time>2020-10-23T18:14:26.453Z</time>
      </trkpt>
      <trkpt lat="45.59907" lon="4.65459">
        <ele>362.63687133789</ele>
        <time>2020-10-23T18:14:32.074Z</time>
      </trkpt>
      <trkpt lat="45.5985" lon="4.65562">
        <ele>357.85302734375</ele>
        <time>2020-10-23T18:14:37.818Z</time>
      </trkpt>
      <trkpt lat="45.59764" lon="4.65566">
        <ele>353.19189453125</ele>
        <time>2020-10-23T18:14:43.677Z</time>
      </trkpt>
      <trkpt lat="45.59758" lon="4.65468">
        <ele>354.76690673828</ele>
        <time>2020-10-23T18:14:49.628Z</time>
      </trkpt>
      <trkpt lat="45.59751" lon="4.65162">
        <ele>361.10934448242</ele>
        <time>2020-10-23T18:14:55.865Z</time>
      </trkpt>
      <trkpt lat="45.59751" lon="4.65163">
        <ele>361.0732421875</ele>
        <time>2020-10-23T18:15:02.103Z</time>
      </trkpt>
      <trkpt lat="45.59719" lon="4.65">
        <ele>363.04837036133</ele>
        <time>2020-10-23T18:15:08.500Z</time>
      </trkpt>
      <trkpt lat="45.59656" lon="4.64869">
        <ele>369.2294921875</ele>
        <time>2020-10-23T18:15:15.045Z</time>
      </trkpt>
      <trkpt lat="45.59647" lon="4.6477">
        <ele>367.46850585938</ele>
        <time>2020-10-23T18:15:21.684Z</time>
      </trkpt>
      <trkpt lat="45.5951" lon="4.64515">
        <ele>375.49758911133</ele>
        <time>2020-10-23T18:15:28.623Z</time>
      </trkpt>
      <trkpt lat="45.59483" lon="4.64324">
        <ele>380.84552001953</ele>
        <time>2020-10-23T18:15:35.745Z</time>
      </trkpt>
      <trkpt lat="45.59451" lon="4.64294">
        <ele>383.63076782227</ele>
        <time>2020-10-23T18:15:42.918Z</time>
      </trkpt>
      <trkpt lat="45.59546" lon="4.64041">
        <ele>378.07858276367</ele>
        <time>2020-10-23T18:15:50.359Z</time>
      </trkpt>
      <trkpt lat="45.59517" lon="4.63929">
        <ele>376.29614257812</ele>
        <time>2020-10-23T18:15:57.912Z</time>
      </trkpt>
      <trkpt lat="45.59533" lon="4.63852">
        <ele>377.30941772461</ele>
        <time>2020-10-23T18:16:05.540Z</time>
      </trkpt>
      <trkpt lat="45.59561" lon="4.63866">
        <ele>379.08285522461</ele>
        <time>2020-10-23T18:16:13.208Z</time>
      </trkpt>
      <trkpt lat="45.59586" lon="4.63828">
        <ele>382.69424438477</ele>
        <time>2020-10-23T18:16:20.925Z</time>
      </trkpt>
      <trkpt lat="45.59635" lon="4.63856">
        <ele>387.15753173828</ele>
        <time>2020-10-23T18:16:28.712Z</time>
      </trkpt>
      <trkpt lat="45.59651" lon="4.63821">
        <ele>389.11322021484</ele>
        <time>2020-10-23T18:16:36.538Z</time>
      </trkpt>
      <trkpt lat="45.59702" lon="4.63799">
        <ele>394.91604614258</ele>
        <time>2020-10-23T18:16:44.435Z</time>
      </trkpt>
      <trkpt lat="45.59919" lon="4.63574">
        <ele>422.90377807617</ele>
        <time>2020-10-23T18:16:52.690Z</time>
      </trkpt>
      <trkpt lat="45.59945" lon="4.63454">
        <ele>429.99505615234</ele>
        <time>2020-10-23T18:17:01.063Z</time>
      </trkpt>
      <trkpt lat="45.60072" lon="4.63348">
        <ele>448.95690917969</ele>
        <time>2020-10-23T18:17:09.632Z</time>
      </trkpt>
      <trkpt lat="45.60071" lon="4.63305">
        <ele>451.45248413086</ele>
        <time>2020-10-23T18:17:18.242Z</time>
      </trkpt>
      <trkpt lat="45.60114" lon="4.63269">
        <ele>459.26681518555</ele>
        <time>2020-10-23T18:17:26.918Z</time>
      </trkpt>
      <trkpt lat="45.60131" lon="4.63195">
        <ele>467.62744140625</ele>
        <time>2020-10-23T18:17:35.667Z</time>
      </trkpt>
      <trkpt lat="45.60131" lon="4.63195">
        <ele>467.61410522461</ele>
        <time>2020-10-23T18:17:44.416Z</time>
      </trkpt>
      <trkpt lat="45.60201" lon="4.63095">
        <ele>485.3844909668</ele>
        <time>2020-10-23T18:17:53.297Z</time>
      </trkpt>
      <trkpt lat="45.60221" lon="4.62995">
        <ele>491.36968994141</ele>
        <time>2020-10-23T18:18:02.276Z</time>
      </trkpt>
      <trkpt lat="45.60246" lon="4.63046">
        <ele>494.38189697266</ele>
        <time>2020-10-23T18:18:11.313Z</time>
      </trkpt>
      <trkpt lat="45.60283" lon="4.62997">
        <ele>500.31106567383</ele>
        <time>2020-10-23T18:18:20.417Z</time>
      </trkpt>
      <trkpt lat="45.6032" lon="4.63107">
        <ele>495.95404052734</ele>
        <time>2020-10-23T18:18:29.636Z</time>
      </trkpt>
      <trkpt lat="45.60424" lon="4.6317">
        <ele>495.26324462891</ele>
        <time>2020-10-23T18:18:39.005Z</time>
      </trkpt>
      <trkpt lat="45.6045" lon="4.63235">
        <ele>486.82620239258</ele>
        <time>2020-10-23T18:18:48.444Z</time>
      </trkpt>
      <trkpt lat="45.60516" lon="4.63343">
        <ele>472.20178222656</ele>
        <time>2020-10-23T18:18:58.017Z</time>
      </trkpt>
      <trkpt lat="45.60591" lon="4.63548">
        <ele>455.72012329102</ele>
        <time>2020-10-23T18:19:07.807Z</time>
      </trkpt>
      <trkpt lat="45.60612" lon="4.63722">
        <ele>445.63653564453</ele>
        <time>2020-10-23T18:19:17.762Z</time>
      </trkpt>
      <trkpt lat="45.60654" lon="4.63767">
        <ele>446.1506652832</ele>
        <time>2020-10-23T18:19:27.787Z</time>
      </trkpt>
      <trkpt lat="45.60696" lon="4.63788">
        <ele>448.64181518555</ele>
        <time>2020-10-23T18:19:37.872Z</time>
      </trkpt>
      <trkpt lat="45.60778" lon="4.64029">
        <ele>433.40023803711</ele>
        <time>2020-10-23T18:19:48.207Z</time>
      </trkpt>
      <trkpt lat="45.6081" lon="4.64132">
        <ele>423.67398071289</ele>
        <time>2020-10-23T18:19:58.648Z</time>
      </trkpt>
      <trkpt lat="45.60926" lon="4.64339">
        <ele>403.43707275391</ele>
        <time>2020-10-23T18:20:09.337Z</time>
      </trkpt>
      <trkpt lat="45.60969" lon="4.64326">
        <ele>399.62780761719</ele>
        <time>2020-10-23T18:20:20.084Z</time>
      </trkpt>
      <trkpt lat="45.60975" lon="4.64366">
        <ele>399.19586181641</ele>
        <time>2020-10-23T18:20:30.870Z</time>
      </trkpt>
      <trkpt lat="45.6102" lon="4.64407">
        <ele>406.64447021484</ele>
        <time>2020-10-23T18:20:41.727Z</time>
      </trkpt>
      <trkpt lat="45.60991" lon="4.647">
        <ele>402.24432373047</ele>
        <time>2020-10-23T18:20:52.861Z</time>
      </trkpt>
      <trkpt lat="45.61006" lon="4.64803">
        <ele>408.43563842773</ele>
        <time>2020-10-23T18:21:04.094Z</time>
      </trkpt>
      <trkpt lat="45.61006" lon="4.64803">
        <ele>408.42153930664</ele>
        <time>2020-10-23T18:21:15.327Z</time>
      </trkpt>
      <trkpt lat="45.60885" lon="4.64917">
        <ele>404.99884033203</ele>
        <time>2020-10-23T18:21:26.753Z</time>
      </trkpt>
      <trkpt lat="45.60859" lon="4.64885">
        <ele>399.50375366211</ele>
        <time>2020-10-23T18:21:38.225Z</time>
      </trkpt>
      <trkpt lat="45.60823" lon="4.6491">
        <ele>398.18872070312</ele>
        <time>2020-10-23T18:21:49.750Z</time>
      </trkpt>
      <trkpt lat="45.60809" lon="4.64987">
        <ele>403.17144775391</ele>
        <time>2020-10-23T18:22:01.350Z</time>
      </trkpt>
      <trkpt lat="45.60967" lon="4.65056">
        <ele>415.18212890625</ele>
        <time>2020-10-23T18:22:13.170Z</time>
      </trkpt>
      <trkpt lat="45.61139" lon="4.65144">
        <ele>414.10681152344</ele>
        <time>2020-10-23T18:22:25.234Z</time>
      </trkpt>
      <trkpt lat="45.61405" lon="4.65108">
        <ele>412.01019287109</ele>
        <time>2020-10-23T18:22:37.654Z</time>
      </trkpt>
      <trkpt lat="45.6142" lon="4.65262">
        <ele>405.27618408203</ele>
        <time>2020-10-23T18:22:50.220Z</time>
      </trkpt>
      <trkpt lat="45.61281" lon="4.65447">
        <ele>397.38482666016</ele>
        <time>2020-10-23T18:23:03.040Z</time>
      </trkpt>
      <trkpt lat="45.61258" lon="4.6553">
        <ele>395.19613647461</ele>
        <time>2020-10-23T18:23:15.943Z</time>
      </trkpt>
      <trkpt lat="45.61406" lon="4.65597">
        <ele>389.56085205078</ele>
        <time>2020-10-23T18:23:29.053Z</time>
      </trkpt>
      <trkpt lat="45.61503" lon="4.65622">
        <ele>394.13919067383</ele>
        <time>2020-10-23T18:23:42.295Z</time>
      </trkpt>
      <trkpt lat="45.61501" lon="4.65667">
        <ele>392.81582641602</ele>
        <time>2020-10-23T18:23:55.579Z</time>
      </trkpt>
      <trkpt lat="45.61537" lon="4.65654">
        <ele>394.21115112305</ele>
        <time>2020-10-23T18:24:08.912Z</time>
      </trkpt>
      <trkpt lat="45.61593" lon="4.65669">
        <ele>390.7688293457</ele>
        <time>2020-10-23T18:24:22.321Z</time>
      </trkpt>
      <trkpt lat="45.61683" lon="4.65754">
        <ele>390.39639282227</ele>
        <time>2020-10-23T18:24:35.874Z</time>
      </trkpt>
      <trkpt lat="45.61672" lon="4.65875">
        <ele>387.53057861328</ele>
        <time>2020-10-23T18:24:49.542Z</time>
      </trkpt>
      <trkpt lat="45.61677" lon="4.6598">
        <ele>384.00546264648</ele>
        <time>2020-10-23T18:25:03.308Z</time>
      </trkpt>
      <trkpt lat="45.61717" lon="4.66122">
        <ele>379.73495483398</ele>
        <time>2020-10-23T18:25:17.218Z</time>
      </trkpt>
      <trkpt lat="45.61726" lon="4.66273">
        <ele>374.68441772461</ele>
        <time>2020-10-23T18:25:31.270Z</time>
      </trkpt>
      <trkpt lat="45.61733" lon="4.66336">
        <ele>373.74478149414</ele>
        <time>2020-10-23T18:25:45.382Z</time>
      </trkpt>
      <trkpt lat="45.61739" lon="4.66373">
        <ele>373.36831665039</ele>
        <time>2020-10-23T18:25:59.529Z</time>
      </trkpt>
      <trkpt lat="45.61699" lon="4.6654">
        <ele>369.34008789062</ele>
        <time>2020-10-23T18:26:13.841Z</time>
      </trkpt>
      <trkpt lat="45.61744" lon="4.66678">
        <ele>359.61779785156</ele>
        <time>2020-10-23T18:26:28.294Z</time>
      </trkpt>
      <trkpt lat="45.61794" lon="4.66759">
        <ele>348.37991333008</ele>
        <time>2020-10-23T18:26:42.849Z</time>
      </trkpt>
      <trkpt lat="45.61822" lon="4.66782">
        <ele>344.76376342773</ele>
        <time>2020-10-23T18:26:57.447Z</time>
      </trkpt>
      <trkpt lat="45.6186" lon="4.66801">
        <ele>343.46432495117</ele>
        <time>2020-10-23T18:27:12.099Z</time>
      </trkpt>
      <trkpt lat="45.61847" lon="4.66821">
        <ele>344.63790893555</ele>
        <time>2020-10-23T18:27:26.776Z</time>
      </trkpt>
      <trkpt lat="45.61822" lon="4.6691">
        <ele>344.81973266602</ele>
        <time>2020-10-23T18:27:41.543Z</time>
      </trkpt>
      <trkpt lat="45.61828" lon="4.66918">
        <ele>346.08056640625</ele>
        <time>2020-10-23T18:27:56.321Z</time>
      </trkpt>
      <trkpt lat="45.61849" lon="4.66935">
        <ele>349.55413818359</ele>
        <time>2020-10-23T18:28:11.131Z</time>
      </trkpt>
      <trkpt lat="45.61846" lon="4.66947">
        <ele>349.92132568359</ele>
        <time>2020-10-23T18:28:25.954Z</time>
      </trkpt>
      <trkpt lat="45.61854" lon="4.66958">
        <ele>351.76376342773</ele>
        <time>2020-10-23T18:28:40.791Z</time>
      </trkpt>
      <trkpt lat="45.61864" lon="4.66982">
        <ele>355.52798461914</ele>
        <time>2020-10-23T18:28:55.654Z</time>
      </trkpt>
      <trkpt lat="45.61931" lon="4.66998">
        <ele>363.78448486328</ele>
        <time>2020-10-23T18:29:10.609Z</time>
      </trkpt>
      <trkpt lat="45.61934" lon="4.67059">
        <ele>368.59417724609</ele>
        <time>2020-10-23T18:29:25.621Z</time>
      </trkpt>
      <trkpt lat="45.61926" lon="4.67138">
        <ele>369.51461791992</ele>
        <time>2020-10-23T18:29:40.708Z</time>
      </trkpt>
      <trkpt lat="45.61903" lon="4.67187">
        <ele>368.80520629883</ele>
        <time>2020-10-23T18:29:55.849Z</time>
      </trkpt>
      <trkpt lat="45.61885" lon="4.67213">
        <ele>368.73080444336</ele>
        <time>2020-10-23T18:30:11.025Z</time>
      </trkpt>
      <trkpt lat="45.6188" lon="4.67283">
        <ele>366.79241943359</ele>
        <time>2020-10-23T18:30:26.267Z</time>
      </trkpt>
      <trkpt lat="45.61883" lon="4.67348">
        <ele>368.38494873047</ele>
        <time>2020-10-23T18:30:41.570Z</time>
      </trkpt>
      <trkpt lat="45.61862" lon="4.67526">
        <ele>368.14166259766</ele>
        <time>2020-10-23T18:30:57.042Z</time>
      </trkpt>
      <trkpt lat="45.61849" lon="4.67594">
        <ele>366</ele>
        <time>2020-10-23T18:31:12.580Z</time>
      </trkpt>
      <trkpt lat="45.61861" lon="4.67621">
        <ele>366</ele>
        <time>2020-10-23T18:31:28.147Z</time>
      </trkpt>
      <trkpt lat="45.61853" lon="4.67635">
        <ele>366</ele>
        <time>2020-10-23T18:31:43.732Z</time>
      </trkpt>
      <trkpt lat="45.61839" lon="4.67665">
        <ele>366</ele>
        <time>2020-10-23T18:31:59.350Z</time>
      </trkpt>
    </trkseg>
  </trk>
</gpx>